sensor_id;sensor_type;location;lat;lon;timestamp;pressure;altitude;pressure_sealevel;temperature;humidity
4972;BME280;2501;51.214;6.768;2023-06-04T00:01:31;101681.38;;;14.93;40.13
4972;BME280;2501;51.214;6.768;2023-06-04T00:04:00;101679.59;;;14.91;40.18
4972;BME280;2501;51.214;6.768;2023-06-04T00:06:28;101674.34;;;15.02;39.76
4972;BME280;2501;51.214;6.768;2023-06-04T00:08:56;101681.34;;;14.84;40.44
4972;BME280;2501;51.214;6.768;2023-06-04T00:11:25;101673.47;;;14.98;40.02
4972;BME280;2501;51.214;6.768;2023-06-04T00:13:53;101684.88;;;14.83;40.19
4972;BME280;2501;51.214;6.768;2023-06-04T00:16:22;101683.09;;;14.79;40.23
4972;BME280;2501;51.214;6.768;2023-06-04T00:18:53;101680.47;;;14.91;40.01
4972;BME280;2501;51.214;6.768;2023-06-04T00:21:21;101681.28;;;14.72;40.50
4972;BME280;2501;51.214;6.768;2023-06-04T00:23:49;101676.94;;;14.89;40.29
4972;BME280;2501;51.214;6.768;2023-06-04T00:26:18;101673.41;;;14.77;40.15
4972;BME280;2501;51.214;6.768;2023-06-04T00:28:47;101672.56;;;14.85;40.39
4972;BME280;2501;51.214;6.768;2023-06-04T00:31:15;101671.66;;;14.79;40.31
4972;BME280;2501;51.214;6.768;2023-06-04T00:33:43;101665.44;;;14.63;40.53
4972;BME280;2501;51.214;6.768;2023-06-04T00:36:14;101666.31;;;14.63;40.71
4972;BME280;2501;51.214;6.768;2023-06-04T00:38:43;101668.06;;;14.61;40.55
4972;BME280;2501;51.214;6.768;2023-06-04T00:41:11;101673.38;;;14.75;40.53
4972;BME280;2501;51.214;6.768;2023-06-04T00:43:40;101683.94;;;14.72;40.69
4972;BME280;2501;51.214;6.768;2023-06-04T00:46:11;101684.72;;;14.45;44.73
4972;BME280;2501;51.214;6.768;2023-06-04T00:48:43;101669.50;;;14.02;46.08
4972;BME280;2501;51.214;6.768;2023-06-04T00:51:14;101678.34;;;14.11;44.22
4972;BME280;2501;51.214;6.768;2023-06-04T00:53:43;101673.09;;;14.20;43.73
4972;BME280;2501;51.214;6.768;2023-06-04T00:56:12;101679.22;;;14.13;43.63
4972;BME280;2501;51.214;6.768;2023-06-04T00:58:40;101675.66;;;14.01;43.75
4972;BME280;2501;51.214;6.768;2023-06-04T01:01:15;101669.41;;;13.89;43.71
4972;BME280;2501;51.214;6.768;2023-06-04T01:03:51;101674.66;;;13.88;44.00
4972;BME280;2501;51.214;6.768;2023-06-04T01:06:30;101676.31;;;13.74;43.96
4972;BME280;2501;51.214;6.768;2023-06-04T01:09:04;101681.72;;;13.93;43.68
4972;BME280;2501;51.214;6.768;2023-06-04T01:11:34;101677.38;;;13.97;43.34
4972;BME280;2501;51.214;6.768;2023-06-04T01:14:03;101668.47;;;13.80;43.83
4972;BME280;2501;51.214;6.768;2023-06-04T01:16:36;101672.03;;;13.89;43.69
4972;BME280;2501;51.214;6.768;2023-06-04T01:19:16;101679.88;;;13.80;44.19
4972;BME280;2501;51.214;6.768;2023-06-04T01:21:56;101684.22;;;13.74;44.74
4972;BME280;2501;51.214;6.768;2023-06-04T01:24:34;101687.63;;;13.61;47.55
4972;BME280;2501;51.214;6.768;2023-06-04T01:27:05;101686.69;;;13.54;47.90
4972;BME280;2501;51.214;6.768;2023-06-04T01:29:34;101686.53;;;13.37;48.38
4972;BME280;2501;51.214;6.768;2023-06-04T01:32:04;101683.91;;;13.39;48.33
4972;BME280;2501;51.214;6.768;2023-06-04T01:34:43;101690.13;;;13.42;48.14
4972;BME280;2501;51.214;6.768;2023-06-04T01:37:14;101692.66;;;13.32;48.69
4972;BME280;2501;51.214;6.768;2023-06-04T01:39:43;101689.13;;;13.31;48.22
4972;BME280;2501;51.214;6.768;2023-06-04T01:42:11;101689.06;;;13.23;47.81
4972;BME280;2501;51.214;6.768;2023-06-04T01:44:40;101691.75;;;13.30;48.57
4972;BME280;2501;51.214;6.768;2023-06-04T01:47:08;101681.06;;;13.17;48.09
4972;BME280;2501;51.214;6.768;2023-06-04T01:49:37;101684.47;;;13.09;48.29
4972;BME280;2501;51.214;6.768;2023-06-04T01:52:06;101687.22;;;13.18;48.03
4972;BME280;2501;51.214;6.768;2023-06-04T01:54:38;101689.00;;;13.19;47.71
4972;BME280;2501;51.214;6.768;2023-06-04T01:57:08;101693.31;;;13.14;47.40
4972;BME280;2501;51.214;6.768;2023-06-04T01:59:36;101695.97;;;13.14;47.33
4972;BME280;2501;51.214;6.768;2023-06-04T02:02:06;101694.94;;;13.03;47.02
4972;BME280;2501;51.214;6.768;2023-06-04T02:04:35;101689.72;;;13.07;47.11
4972;BME280;2501;51.214;6.768;2023-06-04T02:07:06;101693.38;;;13.15;46.79
4972;BME280;2501;51.214;6.768;2023-06-04T02:09:35;101682.63;;;12.97;47.26
4972;BME280;2501;51.214;6.768;2023-06-04T02:12:06;101689.72;;;13.07;46.85
4972;BME280;2501;51.214;6.768;2023-06-04T02:14:35;101686.22;;;13.07;46.82
4972;BME280;2501;51.214;6.768;2023-06-04T02:17:04;101683.50;;;12.98;46.94
4972;BME280;2501;51.214;6.768;2023-06-04T02:19:37;101683.66;;;13.14;46.98
4972;BME280;2501;51.214;6.768;2023-06-04T02:22:10;101693.31;;;13.14;46.77
4972;BME280;2501;51.214;6.768;2023-06-04T02:24:39;101691.38;;;12.99;46.98
4972;BME280;2501;51.214;6.768;2023-06-04T02:27:11;101693.31;;;13.12;46.77
4972;BME280;2501;51.214;6.768;2023-06-04T02:29:41;101688.88;;;13.10;46.92
4972;BME280;2501;51.214;6.768;2023-06-04T02:32:09;101690.53;;;13.02;47.55
4972;BME280;2501;51.214;6.768;2023-06-04T02:34:38;101687.06;;;13.04;47.36
4972;BME280;2501;51.214;6.768;2023-06-04T02:37:06;101696.72;;;13.05;47.84
4972;BME280;2501;51.214;6.768;2023-06-04T02:39:35;101689.69;;;13.04;48.70
4972;BME280;2501;51.214;6.768;2023-06-04T02:42:04;101689.53;;;12.90;48.94
4972;BME280;2501;51.214;6.768;2023-06-04T02:44:35;101690.53;;;13.00;48.55
4972;BME280;2501;51.214;6.768;2023-06-04T02:47:04;101697.50;;;12.95;48.90
4972;BME280;2501;51.214;6.768;2023-06-04T02:49:32;101694.75;;;12.86;50.24
4972;BME280;2501;51.214;6.768;2023-06-04T02:52:01;101699.16;;;12.87;50.18
4972;BME280;2501;51.214;6.768;2023-06-04T02:54:29;101695.41;;;12.67;51.00
4972;BME280;2501;51.214;6.768;2023-06-04T02:56:57;101696.47;;;12.84;51.09
4972;BME280;2501;51.214;6.768;2023-06-04T02:59:26;101696.38;;;12.75;52.11
4972;BME280;2501;51.214;6.768;2023-06-04T03:01:57;101697.28;;;12.77;51.92
4972;BME280;2501;51.214;6.768;2023-06-04T03:04:26;101696.47;;;12.81;51.72
4972;BME280;2501;51.214;6.768;2023-06-04T03:06:59;101701.44;;;12.58;52.87
4972;BME280;2501;51.214;6.768;2023-06-04T03:09:28;101699.69;;;12.59;52.36
4972;BME280;2501;51.214;6.768;2023-06-04T03:11:58;101704.75;;;12.43;52.62
4972;BME280;2501;51.214;6.768;2023-06-04T03:14:27;101701.53;;;12.66;52.30
4972;BME280;2501;51.214;6.768;2023-06-04T03:17:00;101709.31;;;12.57;52.78
4972;BME280;2501;51.214;6.768;2023-06-04T03:19:33;101707.31;;;12.39;53.11
4972;BME280;2501;51.214;6.768;2023-06-04T03:22:02;101705.47;;;12.32;53.20
4972;BME280;2501;51.214;6.768;2023-06-04T03:24:33;101702.09;;;12.42;52.68
4972;BME280;2501;51.214;6.768;2023-06-04T03:27:02;101702.34;;;12.59;52.59
4972;BME280;2501;51.214;6.768;2023-06-04T03:29:31;101705.72;;;12.51;52.78
4972;BME280;2501;51.214;6.768;2023-06-04T03:32:03;101707.59;;;12.59;52.08
4972;BME280;2501;51.214;6.768;2023-06-04T03:34:32;101711.69;;;12.38;52.60
4972;BME280;2501;51.214;6.768;2023-06-04T03:37:00;101705.63;;;12.42;52.34
4972;BME280;2501;51.214;6.768;2023-06-04T03:39:29;101708.22;;;12.41;52.83
4972;BME280;2501;51.214;6.768;2023-06-04T03:41:57;101702.78;;;12.27;53.08
4972;BME280;2501;51.214;6.768;2023-06-04T03:44:26;101713.09;;;12.13;53.93
4972;BME280;2501;51.214;6.768;2023-06-04T03:46:54;101707.19;;;12.28;53.73
4972;BME280;2501;51.214;6.768;2023-06-04T03:49:25;101713.34;;;12.29;54.16
4972;BME280;2501;51.214;6.768;2023-06-04T03:51:53;101716.72;;;12.22;54.46
4972;BME280;2501;51.214;6.768;2023-06-04T03:54:22;101708.94;;;12.28;54.49
4972;BME280;2501;51.214;6.768;2023-06-04T03:56:50;101719.22;;;12.11;54.95
4972;BME280;2501;51.214;6.768;2023-06-04T03:59:22;101715.81;;;12.19;55.36
4972;BME280;2501;51.214;6.768;2023-06-04T04:01:50;101706.28;;;12.26;55.11
4972;BME280;2501;51.214;6.768;2023-06-04T04:04:18;101706.34;;;12.29;56.19
4972;BME280;2501;51.214;6.768;2023-06-04T04:06:49;101714.19;;;12.28;56.85
4972;BME280;2501;51.214;6.768;2023-06-04T04:09:18;101713.34;;;12.29;57.28
4972;BME280;2501;51.214;6.768;2023-06-04T04:11:46;101712.06;;;12.04;57.65
4972;BME280;2501;51.214;6.768;2023-06-04T04:14:14;101715.72;;;12.13;57.95
4972;BME280;2501;51.214;6.768;2023-06-04T04:16:43;101711.38;;;12.17;57.46
4972;BME280;2501;51.214;6.768;2023-06-04T04:19:11;101707.66;;;12.01;57.90
4972;BME280;2501;51.214;6.768;2023-06-04T04:21:39;101713.13;;;12.16;57.79
4972;BME280;2501;51.214;6.768;2023-06-04T04:24:10;101713.78;;;12.02;57.63
4972;BME280;2501;51.214;6.768;2023-06-04T04:26:49;101712.16;;;12.08;57.03
4972;BME280;2501;51.214;6.768;2023-06-04T04:29:23;101703.69;;;12.28;56.75
4972;BME280;2501;51.214;6.768;2023-06-04T04:31:53;101714.22;;;12.29;56.31
4972;BME280;2501;51.214;6.768;2023-06-04T04:34:22;101705.50;;;12.35;56.29
4972;BME280;2501;51.214;6.768;2023-06-04T04:36:51;101709.00;;;12.34;56.50
4972;BME280;2501;51.214;6.768;2023-06-04T04:39:25;101709.84;;;12.31;57.03
4972;BME280;2501;51.214;6.768;2023-06-04T04:41:54;101719.72;;;12.49;56.69
4972;BME280;2501;51.214;6.768;2023-06-04T04:44:22;101718.06;;;12.55;56.79
4972;BME280;2501;51.214;6.768;2023-06-04T04:46:51;101712.84;;;12.59;57.25
4972;BME280;2501;51.214;6.768;2023-06-04T04:49:19;101718.09;;;12.57;56.68
4972;BME280;2501;51.214;6.768;2023-06-04T04:51:48;101715.53;;;12.62;56.58
4972;BME280;2501;51.214;6.768;2023-06-04T04:54:16;101719.22;;;12.76;55.71
4972;BME280;2501;51.214;6.768;2023-06-04T04:56:47;101713.19;;;12.86;54.87
4972;BME280;2501;51.214;6.768;2023-06-04T04:59:16;101711.44;;;12.86;54.37
4972;BME280;2501;51.214;6.768;2023-06-04T05:01:44;101708.75;;;12.83;54.18
4972;BME280;2501;51.214;6.768;2023-06-04T05:04:12;101702.91;;;13.07;53.39
4972;BME280;2501;51.214;6.768;2023-06-04T05:06:41;101703.94;;;13.20;53.04
4972;BME280;2501;51.214;6.768;2023-06-04T05:09:09;101712.34;;;12.88;53.40
4972;BME280;2501;51.214;6.768;2023-06-04T05:11:37;101708.13;;;13.04;53.54
4972;BME280;2501;51.214;6.768;2023-06-04T05:14:08;101704.78;;;13.17;53.11
4972;BME280;2501;51.214;6.768;2023-06-04T05:16:37;101708.34;;;13.22;53.36
4972;BME280;2501;51.214;6.768;2023-06-04T05:19:06;101708.53;;;13.39;52.61
4972;BME280;2501;51.214;6.768;2023-06-04T05:21:36;101714.53;;;13.24;52.68
4972;BME280;2501;51.214;6.768;2023-06-04T05:24:04;101713.16;;;13.63;51.71
4972;BME280;2501;51.214;6.768;2023-06-04T05:26:33;101720.91;;;13.46;51.26
4972;BME280;2501;51.214;6.768;2023-06-04T05:29:02;101714.25;;;13.91;49.36
4972;BME280;2501;51.214;6.768;2023-06-04T05:31:33;101709.03;;;13.97;48.74
4972;BME280;2501;51.214;6.768;2023-06-04T05:34:02;101717.00;;;14.09;46.55
4972;BME280;2501;51.214;6.768;2023-06-04T05:36:32;101717.97;;;14.22;46.70
4972;BME280;2501;51.214;6.768;2023-06-04T05:39:00;101715.34;;;14.19;47.03
4972;BME280;2501;51.214;6.768;2023-06-04T05:41:29;101722.47;;;14.34;47.25
4972;BME280;2501;51.214;6.768;2023-06-04T05:43:58;101720.69;;;14.33;49.10
4972;BME280;2501;51.214;6.768;2023-06-04T05:46:26;101719.81;;;14.38;48.49
4972;BME280;2501;51.214;6.768;2023-06-04T05:48:57;101727.66;;;14.23;48.24
4972;BME280;2501;51.214;6.768;2023-06-04T05:51:26;101724.31;;;14.45;48.60
4972;BME280;2501;51.214;6.768;2023-06-04T05:53:55;101718.22;;;14.54;47.83
4972;BME280;2501;51.214;6.768;2023-06-04T05:56:23;101723.47;;;14.58;47.93
4972;BME280;2501;51.214;6.768;2023-06-04T05:58:52;101717.38;;;14.67;47.21
4972;BME280;2501;51.214;6.768;2023-06-04T06:01:21;101722.69;;;14.70;46.02
4972;BME280;2501;51.214;6.768;2023-06-04T06:03:49;101722.75;;;14.87;45.85
4972;BME280;2501;51.214;6.768;2023-06-04T06:06:20;101723.69;;;15.04;46.83
4972;BME280;2501;51.214;6.768;2023-06-04T06:08:49;101728.13;;;15.20;45.87
4972;BME280;2501;51.214;6.768;2023-06-04T06:11:18;101735.16;;;15.26;46.20
4972;BME280;2501;51.214;6.768;2023-06-04T06:13:47;101731.69;;;15.35;46.48
4972;BME280;2501;51.214;6.768;2023-06-04T06:16:15;101740.50;;;15.43;45.91
4972;BME280;2501;51.214;6.768;2023-06-04T06:18:44;101735.22;;;15.46;45.31
4972;BME280;2501;51.214;6.768;2023-06-04T06:21:12;101732.59;;;15.55;45.23
4972;BME280;2501;51.214;6.768;2023-06-04T06:23:43;101741.47;;;15.75;45.03
4972;BME280;2501;51.214;6.768;2023-06-04T06:26:12;101737.06;;;15.73;44.46
4972;BME280;2501;51.214;6.768;2023-06-04T06:28:42;101742.31;;;15.63;44.64
4972;BME280;2501;51.214;6.768;2023-06-04T06:31:11;101738.81;;;15.83;44.88
4972;BME280;2501;51.214;6.768;2023-06-04T06:33:39;101743.19;;;15.78;44.86
4972;BME280;2501;51.214;6.768;2023-06-04T06:36:07;101744.09;;;16.06;44.30
4972;BME280;2501;51.214;6.768;2023-06-04T06:38:36;101752.03;;;16.02;44.35
4972;BME280;2501;51.214;6.768;2023-06-04T06:41:08;101750.28;;;16.09;42.20
4972;BME280;2501;51.214;6.768;2023-06-04T06:43:36;101746.69;;;16.34;42.49
4972;BME280;2501;51.214;6.768;2023-06-04T06:46:05;101752.91;;;16.26;41.75
4972;BME280;2501;51.214;6.768;2023-06-04T06:48:33;101751.97;;;16.31;41.93
4972;BME280;2501;51.214;6.768;2023-06-04T06:51:02;101746.66;;;16.53;41.68
4972;BME280;2501;51.214;6.768;2023-06-04T06:53:30;101748.41;;;16.64;41.24
4972;BME280;2501;51.214;6.768;2023-06-04T06:55:59;101749.28;;;16.73;41.14
4972;BME280;2501;51.214;6.768;2023-06-04T06:58:30;101755.44;;;16.75;40.79
4972;BME280;2501;51.214;6.768;2023-06-04T07:00:58;101745.63;;;16.98;40.15
4972;BME280;2501;51.214;6.768;2023-06-04T07:03:27;101750.91;;;17.05;39.22
4972;BME280;2501;51.214;6.768;2023-06-04T07:05:55;101753.47;;;17.21;39.26
4972;BME280;2501;51.214;6.768;2023-06-04T07:08:24;101757.00;;;17.15;39.53
4972;BME280;2501;51.214;6.768;2023-06-04T07:10:53;101756.03;;;17.33;39.11
4972;BME280;2501;51.214;6.768;2023-06-04T07:13:22;101751.56;;;17.44;38.86
4972;BME280;2501;51.214;6.768;2023-06-04T07:15:53;101752.38;;;17.51;38.56
4972;BME280;2501;51.214;6.768;2023-06-04T07:18:21;101751.50;;;17.50;38.75
4972;BME280;2501;51.214;6.768;2023-06-04T07:20:50;101751.31;;;17.82;39.94
4972;BME280;2501;51.214;6.768;2023-06-04T07:23:18;101757.44;;;17.90;39.38
4972;BME280;2501;51.214;6.768;2023-06-04T07:25:47;101747.59;;;18.03;38.60
4972;BME280;2501;51.214;6.768;2023-06-04T07:28:15;101751.06;;;18.13;38.11
4972;BME280;2501;51.214;6.768;2023-06-04T07:30:45;101748.28;;;18.23;37.74
4972;BME280;2501;51.214;6.768;2023-06-04T07:33:16;101739.19;;;18.46;37.33
4972;BME280;2501;51.214;6.768;2023-06-04T07:35:45;101745.28;;;18.55;36.91
4972;BME280;2501;51.214;6.768;2023-06-04T07:38:13;101752.34;;;18.61;37.08
4972;BME280;2501;51.214;6.768;2023-06-04T07:40:54;101748.59;;;18.80;36.69
4972;BME280;2501;51.214;6.768;2023-06-04T07:43:23;101746.16;;;18.60;36.25
4972;BME280;2501;51.214;6.768;2023-06-04T07:45:51;101743.28;;;18.78;36.72
4972;BME280;2501;51.214;6.768;2023-06-04T07:48:22;101745.91;;;18.82;36.59
4972;BME280;2501;51.214;6.768;2023-06-04T07:50:56;101745.69;;;18.98;36.08
4972;BME280;2501;51.214;6.768;2023-06-04T07:53:24;101740.41;;;18.95;36.52
4972;BME280;2501;51.214;6.768;2023-06-04T07:55:53;101744.78;;;19.01;35.90
4972;BME280;2501;51.214;6.768;2023-06-04T07:58:22;101743.13;;;18.91;35.89
4972;BME280;2501;51.214;6.768;2023-06-04T08:00:50;101745.22;;;19.33;35.87
4972;BME280;2501;51.214;6.768;2023-06-04T08:03:21;101744.06;;;19.53;35.39
4972;BME280;2501;51.214;6.768;2023-06-04T08:05:50;101749.84;;;19.19;34.97
4972;BME280;2501;51.214;6.768;2023-06-04T08:08:20;101743.09;;;18.92;35.88
4972;BME280;2501;51.214;6.768;2023-06-04T08:10:49;101748.47;;;18.88;35.29
4972;BME280;2501;51.214;6.768;2023-06-04T08:13:17;101743.56;;;19.23;35.23
4972;BME280;2501;51.214;6.768;2023-06-04T08:15:46;101748.72;;;19.35;35.03
4972;BME280;2501;51.214;6.768;2023-06-04T08:18:14;101748.06;;;19.20;34.98
4972;BME280;2501;51.214;6.768;2023-06-04T08:21:02;101742.75;;;19.20;35.25
4972;BME280;2501;51.214;6.768;2023-06-04T08:23:31;101744.47;;;19.22;34.21
4972;BME280;2501;51.214;6.768;2023-06-04T08:25:59;101746.16;;;19.28;35.13
4972;BME280;2501;51.214;6.768;2023-06-04T08:28:28;101749.28;;;19.59;34.34
4972;BME280;2501;51.214;6.768;2023-06-04T08:30:56;101754.16;;;19.26;34.83
4972;BME280;2501;51.214;6.768;2023-06-04T08:33:25;101751.28;;;19.40;34.36
4972;BME280;2501;51.214;6.768;2023-06-04T08:35:55;101752.97;;;19.48;34.01
4972;BME280;2501;51.214;6.768;2023-06-04T08:38:24;101755.69;;;19.42;33.80
4972;BME280;2501;51.214;6.768;2023-06-04T08:40:53;101748.44;;;19.57;33.73
4972;BME280;2501;51.214;6.768;2023-06-04T08:43:26;101751.50;;;19.86;32.99
4972;BME280;2501;51.214;6.768;2023-06-04T08:45:59;101752.75;;;19.64;33.05
4972;BME280;2501;51.214;6.768;2023-06-04T08:48:30;101754.66;;;19.56;33.30
4972;BME280;2501;51.214;6.768;2023-06-04T08:51:06;101745.47;;;19.75;33.36
4972;BME280;2501;51.214;6.768;2023-06-04T08:53:35;101747.22;;;19.76;33.13
4972;BME280;2501;51.214;6.768;2023-06-04T08:56:06;101748.41;;;19.58;33.15
4972;BME280;2501;51.214;6.768;2023-06-04T08:58:36;101753.44;;;19.75;32.86
4972;BME280;2501;51.214;6.768;2023-06-04T09:01:04;101746.44;;;19.71;32.66
4972;BME280;2501;51.214;6.768;2023-06-04T09:03:33;101750.69;;;19.81;32.41
4972;BME280;2501;51.214;6.768;2023-06-04T09:06:05;101748.84;;;19.88;32.52
4972;BME280;2501;51.214;6.768;2023-06-04T09:08:37;101744.00;;;20.09;32.53
4972;BME280;2501;51.214;6.768;2023-06-04T09:11:09;101740.94;;;20.31;32.13
4972;BME280;2501;51.214;6.768;2023-06-04T09:13:38;101749.09;;;20.23;32.19
4972;BME280;2501;51.214;6.768;2023-06-04T09:16:08;101749.09;;;20.23;32.26
4972;BME280;2501;51.214;6.768;2023-06-04T09:18:36;101747.59;;;20.08;32.12
4972;BME280;2501;51.214;6.768;2023-06-04T09:21:08;101746.72;;;20.56;32.08
4972;BME280;2501;51.214;6.768;2023-06-04T09:23:37;101749.47;;;20.51;31.21
4972;BME280;2501;51.214;6.768;2023-06-04T09:26:11;101744.53;;;20.28;32.47
4972;BME280;2501;51.214;6.768;2023-06-04T09:28:40;101758.13;;;20.13;33.22
4972;BME280;2501;51.214;6.768;2023-06-04T09:31:09;101751.06;;;20.10;33.33
4972;BME280;2501;51.214;6.768;2023-06-04T09:33:45;101744.41;;;20.39;32.70
4972;BME280;2501;51.214;6.768;2023-06-04T09:36:17;101750.81;;;20.73;32.80
4972;BME280;2501;51.214;6.768;2023-06-04T09:38:45;101750.75;;;20.29;33.16
4972;BME280;2501;51.214;6.768;2023-06-04T09:41:15;101755.72;;;20.50;33.29
4972;BME280;2501;51.214;6.768;2023-06-04T09:43:45;101740.78;;;20.43;33.48
4972;BME280;2501;51.214;6.768;2023-06-04T09:46:14;101748.72;;;20.44;33.50
4972;BME280;2501;51.214;6.768;2023-06-04T09:48:44;101742.28;;;20.56;32.63
4972;BME280;2501;51.214;6.768;2023-06-04T09:51:16;101755.91;;;20.41;33.33
4972;BME280;2501;51.214;6.768;2023-06-04T09:53:53;101740.94;;;20.31;33.43
4972;BME280;2501;51.214;6.768;2023-06-04T09:56:23;101749.41;;;20.56;33.34
4972;BME280;2501;51.214;6.768;2023-06-04T09:58:54;101744.19;;;20.48;31.85
4972;BME280;2501;51.214;6.768;2023-06-04T10:01:27;101742.38;;;20.50;31.47
4972;BME280;2501;51.214;6.768;2023-06-04T10:03:58;101751.28;;;20.94;31.48
4972;BME280;2501;51.214;6.768;2023-06-04T10:06:34;101743.00;;;20.64;32.42
4972;BME280;2501;51.214;6.768;2023-06-04T10:09:05;101745.09;;;20.92;32.35
4972;BME280;2501;51.214;6.768;2023-06-04T10:11:35;101745.31;;;21.24;31.30
4972;BME280;2501;51.214;6.768;2023-06-04T10:14:10;101754.00;;;21.32;31.18
4972;BME280;2501;51.214;6.768;2023-06-04T10:16:42;101756.13;;;20.75;31.69
4972;BME280;2501;51.214;6.768;2023-06-04T10:19:12;101758.88;;;20.70;31.24
4972;BME280;2501;51.214;6.768;2023-06-04T10:21:43;101739.25;;;20.74;31.59
4972;BME280;2501;51.214;6.768;2023-06-04T10:24:14;101744.34;;;20.85;31.45
4972;BME280;2501;51.214;6.768;2023-06-04T10:26:42;101736.16;;;20.94;31.26
4972;BME280;2501;51.214;6.768;2023-06-04T10:29:12;101737.81;;;21.00;31.29
4972;BME280;2501;51.214;6.768;2023-06-04T10:31:42;101737.97;;;20.94;31.41
4972;BME280;2501;51.214;6.768;2023-06-04T10:34:11;101742.47;;;20.90;31.26
4972;BME280;2501;51.214;6.768;2023-06-04T10:36:46;101733.25;;;21.05;31.04
4972;BME280;2501;51.214;6.768;2023-06-04T10:39:25;101737.44;;;21.16;31.26
4972;BME280;2501;51.214;6.768;2023-06-04T10:42:00;101737.88;;;20.97;30.97
4972;BME280;2501;51.214;6.768;2023-06-04T10:44:29;101728.75;;;21.08;31.08
4972;BME280;2501;51.214;6.768;2023-06-04T10:46:58;101731.22;;;21.16;31.37
4972;BME280;2501;51.214;6.768;2023-06-04T10:49:28;101736.19;;;21.34;31.08
4972;BME280;2501;51.214;6.768;2023-06-04T10:52:09;101737.94;;;21.35;30.85
4972;BME280;2501;51.214;6.768;2023-06-04T10:54:38;101734.63;;;20.82;31.15
4972;BME280;2501;51.214;6.768;2023-06-04T10:57:10;101727.88;;;21.08;31.05
4972;BME280;2501;51.214;6.768;2023-06-04T10:59:39;101729.25;;;21.27;31.08
4972;BME280;2501;51.214;6.768;2023-06-04T11:02:08;101726.41;;;21.33;30.74
4972;BME280;2501;51.214;6.768;2023-06-04T11:04:37;101732.59;;;21.35;31.02
4972;BME280;2501;51.214;6.768;2023-06-04T11:07:08;101729.63;;;21.47;30.59
4972;BME280;2501;51.214;6.768;2023-06-04T11:09:38;101734.75;;;21.18;31.32
4972;BME280;2501;51.214;6.768;2023-06-04T11:12:07;101733.03;;;21.14;30.58
4972;BME280;2501;51.214;6.768;2023-06-04T11:14:35;101728.16;;;21.34;31.24
4972;BME280;2501;51.214;6.768;2023-06-04T11:17:13;101723.25;;;21.54;30.58
4972;BME280;2501;51.214;6.768;2023-06-04T11:19:42;101716.19;;;21.52;30.63
4972;BME280;2501;51.214;6.768;2023-06-04T11:22:13;101710.81;;;21.53;30.94
4972;BME280;2501;51.214;6.768;2023-06-04T11:24:42;101709.09;;;21.86;30.37
4972;BME280;2501;51.214;6.768;2023-06-04T11:27:10;101708.75;;;21.65;29.89
4972;BME280;2501;51.214;6.768;2023-06-04T11:29:39;101714.19;;;21.97;29.97
4972;BME280;2501;51.214;6.768;2023-06-04T11:32:07;101708.84;;;21.62;30.75
4972;BME280;2501;51.214;6.768;2023-06-04T11:34:35;101710.41;;;21.70;30.56
4972;BME280;2501;51.214;6.768;2023-06-04T11:37:12;101716.38;;;21.44;30.75
4972;BME280;2501;51.214;6.768;2023-06-04T11:39:41;101704.22;;;21.31;30.80
4972;BME280;2501;51.214;6.768;2023-06-04T11:42:10;101713.00;;;21.73;30.14
4972;BME280;2501;51.214;6.768;2023-06-04T11:44:39;101713.06;;;21.70;29.96
4972;BME280;2501;51.214;6.768;2023-06-04T11:47:11;101702.59;;;21.63;30.32
4972;BME280;2501;51.214;6.768;2023-06-04T11:49:40;101695.19;;;21.74;29.64
4972;BME280;2501;51.214;6.768;2023-06-04T11:52:09;101690.06;;;22.00;29.82
4972;BME280;2501;51.214;6.768;2023-06-04T11:54:40;101696.97;;;22.41;29.46
4972;BME280;2501;51.214;6.768;2023-06-04T11:57:09;101707.88;;;22.00;29.13
4972;BME280;2501;51.214;6.768;2023-06-04T11:59:37;101696.09;;;21.73;29.80
4972;BME280;2501;51.214;6.768;2023-06-04T12:02:07;101698.50;;;22.17;29.18
4972;BME280;2501;51.214;6.768;2023-06-04T12:04:35;101696.25;;;22.35;29.16
4972;BME280;2501;51.214;6.768;2023-06-04T12:07:04;101696.81;;;22.15;28.58
4972;BME280;2501;51.214;6.768;2023-06-04T12:09:34;101702.75;;;21.91;28.76
4972;BME280;2501;51.214;6.768;2023-06-04T12:12:07;101695.81;;;22.17;28.43
4972;BME280;2501;51.214;6.768;2023-06-04T12:14:37;101700.63;;;22.37;28.48
4972;BME280;2501;51.214;6.768;2023-06-04T12:17:08;101696.25;;;22.02;28.14
4972;BME280;2501;51.214;6.768;2023-06-04T12:19:46;101687.66;;;21.89;28.29
4972;BME280;2501;51.214;6.768;2023-06-04T12:22:15;101697.00;;;22.07;27.39
4972;BME280;2501;51.214;6.768;2023-06-04T12:24:49;101690.38;;;22.22;27.56
4972;BME280;2501;51.214;6.768;2023-06-04T12:27:21;101694.22;;;22.12;27.50
4972;BME280;2501;51.214;6.768;2023-06-04T12:29:57;101683.91;;;22.62;26.74
4972;BME280;2501;51.214;6.768;2023-06-04T12:32:26;101683.25;;;22.84;26.16
4972;BME280;2501;51.214;6.768;2023-06-04T12:34:55;101677.03;;;22.84;25.62
4972;BME280;2501;51.214;6.768;2023-06-04T12:37:24;101684.25;;;23.10;25.85
4972;BME280;2501;51.214;6.768;2023-06-04T12:39:53;101679.78;;;23.10;25.41
4972;BME280;2501;51.214;6.768;2023-06-04T12:42:24;101676.00;;;23.17;25.15
4972;BME280;2501;51.214;6.768;2023-06-04T12:44:53;101677.34;;;23.03;25.44
4972;BME280;2501;51.214;6.768;2023-06-04T12:47:21;101671.06;;;23.32;25.43
4972;BME280;2501;51.214;6.768;2023-06-04T12:49:50;101675.28;;;23.11;25.99
4972;BME280;2501;51.214;6.768;2023-06-04T12:52:18;101679.25;;;22.99;25.84
4972;BME280;2501;51.214;6.768;2023-06-04T12:54:47;101669.41;;;23.00;25.74
4972;BME280;2501;51.214;6.768;2023-06-04T12:57:16;101665.16;;;23.75;25.13
4972;BME280;2501;51.214;6.768;2023-06-04T12:59:47;101664.03;;;24.33;23.87
4972;BME280;2501;51.214;6.768;2023-06-04T13:02:15;101658.28;;;24.67;23.83
4972;BME280;2501;51.214;6.768;2023-06-04T13:04:44;101661.19;;;24.84;22.98
4972;BME280;2501;51.214;6.768;2023-06-04T13:07:12;101658.88;;;24.02;24.42
4972;BME280;2501;51.214;6.768;2023-06-04T13:09:41;101666.09;;;24.25;23.51
4972;BME280;2501;51.214;6.768;2023-06-04T13:12:09;101664.22;;;24.52;23.67
4972;BME280;2501;51.214;6.768;2023-06-04T13:14:38;101665.84;;;25.03;23.30
4972;BME280;2501;51.214;6.768;2023-06-04T13:17:10;101653.50;;;24.52;22.76
4972;BME280;2501;51.214;6.768;2023-06-04T13:19:38;101660.38;;;25.06;22.65
4972;BME280;2501;51.214;6.768;2023-06-04T13:22:07;101653.53;;;26.05;21.69
4972;BME280;2501;51.214;6.768;2023-06-04T13:24:36;101652.25;;;25.07;21.98